Time;durP1;ratioP1;P1;durP2;ratioP2;P2;SDS_P1;SDS_P2;PMS_P1;PMS_P2;Temp;Humidity;BMP_temperature;BMP_pressure;BME280_temperature;BME280_humidity;BME280_pressure;Samples;Min_cycle;Max_cycle;Signal;HPM_P1;HPM_P2
2023/10/13 00:02:01;;;;;;;5.30;2.42;;;17.60;99.90;;;;;;4933886;29;20130;-71
2023/10/13 00:04:32;;;;;;;5.55;2.80;;;17.70;99.90;;;;;;4946201;29;20024;-71
2023/10/13 00:06:59;;;;;;;7.35;2.90;;;17.70;99.90;;;;;;4947653;29;20067;-71
2023/10/13 00:09:32;;;;;;;11.27;2.75;;;17.60;99.90;;;;;;4964118;28;20523;-71
2023/10/13 00:12:00;;;;;;;9.50;2.65;;;17.70;99.90;;;;;;4947052;29;20071;-71
2023/10/13 00:14:33;;;;;;;9.93;2.92;;;17.80;99.90;;;;;;4930846;29;20039;-70
2023/10/13 00:17:04;;;;;;;8.40;3.25;;;17.80;99.90;;;;;;4950753;29;20027;-71
2023/10/13 00:19:38;;;;;;;12.90;2.95;;;17.80;99.90;;;;;;4966317;28;20092;-71
2023/10/13 00:22:09;;;;;;;15.68;2.65;;;17.80;99.90;;;;;;4937019;29;20114;-71
2023/10/13 00:24:45;;;;;;;5.25;2.38;;;17.80;99.90;;;;;;4968532;28;20491;-71
2023/10/13 00:32:46;;;;;;;14.98;4.97;;;17.70;99.90;;;;;;4950637;29;20028;-71
2023/10/13 00:35:24;;;;;;;8.00;2.97;;;17.70;99.90;;;;;;4951365;28;20027;-71
2023/10/13 00:37:54;;;;;;;11.85;3.47;;;17.60;99.90;;;;;;4949966;29;20450;-71
2023/10/13 00:43:03;;;;;;;7.57;2.95;;;17.60;99.90;;;;;;4936441;29;20376;-71
2023/10/13 00:45:33;;;;;;;7.75;2.80;;;17.50;99.90;;;;;;4937072;29;20122;-71
2023/10/13 00:48:01;;;;;;;8.52;2.75;;;17.50;99.90;;;;;;4933185;29;20093;-71
2023/10/13 00:50:29;;;;;;;9.75;3.05;;;17.50;99.90;;;;;;4935735;29;20059;-71
2023/10/13 00:52:55;;;;;;;6.47;3.13;;;17.50;99.90;;;;;;4936357;29;20043;-71
2023/10/13 00:55:22;;;;;;;13.43;4.45;;;17.40;99.90;;;;;;4935774;29;20114;-71
2023/10/13 00:57:59;;;;;;;7.38;3.10;;;17.40;99.90;;;;;;4950803;29;20044;-71
2023/10/13 01:00:28;;;;;;;6.18;2.70;;;17.40;99.90;;;;;;4951104;29;20110;-71
2023/10/13 01:02:55;;;;;;;4.90;2.67;;;17.50;99.90;;;;;;4950564;29;20469;-71
2023/10/13 01:05:24;;;;;;;6.45;3.85;;;17.50;99.90;;;;;;4929572;29;20393;-71
2023/10/13 01:07:54;;;;;;;11.02;3.13;;;17.50;99.90;;;;;;4955059;28;20036;-71
2023/10/13 01:10:32;;;;;;;6.55;3.22;;;17.50;99.90;;;;;;4934976;29;20502;-71
2023/10/13 01:13:02;;;;;;;5.10;3.10;;;17.40;99.90;;;;;;4966556;28;20031;-71
2023/10/13 01:15:33;;;;;;;7.53;3.20;;;17.40;99.90;;;;;;4935576;29;20028;-71
2023/10/13 01:18:16;;;;;;;9.55;3.28;;;17.40;99.90;;;;;;4950008;29;20036;-71
2023/10/13 01:20:45;;;;;;;11.02;3.13;;;17.40;99.90;;;;;;4936748;29;20059;-71
2023/10/13 01:23:24;;;;;;;7.53;3.28;;;17.40;99.90;;;;;;4935735;29;20136;-71
2023/10/13 01:25:50;;;;;;;7.47;3.90;;;17.40;99.90;;;;;;4927584;29;20019;-71
2023/10/13 01:28:17;;;;;;;9.18;3.67;;;17.40;99.90;;;;;;4935748;29;20102;-71
2023/10/13 01:30:49;;;;;;;7.70;3.67;;;17.40;99.90;;;;;;4935175;29;20126;-71
2023/10/13 01:33:28;;;;;;;10.65;3.70;;;17.40;99.90;;;;;;4949090;29;20086;-71
2023/10/13 01:35:58;;;;;;;9.73;3.22;;;17.30;99.90;;;;;;4947756;29;20122;-71
2023/10/13 01:38:28;;;;;;;12.02;4.18;;;17.20;99.90;;;;;;4934232;29;20051;-71
2023/10/13 01:40:56;;;;;;;5.55;2.35;;;17.20;99.90;;;;;;4950313;29;20353;-70
2023/10/13 01:43:23;;;;;;;12.13;3.17;;;17.10;99.90;;;;;;4949621;29;20044;-70
2023/10/13 01:45:49;;;;;;;15.38;3.70;;;17.20;99.90;;;;;;4935063;29;20051;-70
2023/10/13 01:48:18;;;;;;;9.80;3.20;;;17.20;99.90;;;;;;4950158;29;20155;-70
2023/10/13 01:50:55;;;;;;;7.43;3.28;;;17.10;99.90;;;;;;4933915;29;20031;-70
2023/10/13 01:53:22;;;;;;;10.10;2.92;;;17.10;99.90;;;;;;4933975;29;20042;-70
2023/10/13 01:55:50;;;;;;;6.88;3.15;;;17.10;99.90;;;;;;4949628;29;20039;-71
2023/10/13 01:58:16;;;;;;;7.97;3.28;;;17.10;99.90;;;;;;4934170;29;20042;-71
2023/10/13 02:00:44;;;;;;;13.80;4.43;;;17.10;99.90;;;;;;4949582;29;20468;-71
2023/10/13 02:03:17;;;;;;;11.32;3.65;;;17.10;99.90;;;;;;4947853;29;20028;-71
2023/10/13 02:05:47;;;;;;;6.03;3.78;;;17.10;99.90;;;;;;4948655;29;20024;-71
2023/10/13 02:08:22;;;;;;;6.80;2.95;;;17.10;99.90;;;;;;4930578;29;20036;-71
2023/10/13 02:10:52;;;;;;;12.32;3.90;;;17.10;99.90;;;;;;4951535;29;20045;-71
2023/10/13 02:13:22;;;;;;;16.67;4.13;;;17.10;99.90;;;;;;4966205;28;20039;-71
2023/10/13 02:15:52;;;;;;;11.88;4.43;;;17.10;99.90;;;;;;4913322;29;20488;-71
2023/10/13 02:18:53;;;;;;;10.18;3.45;;;17.20;99.90;;;;;;4950145;29;20039;-71
2023/10/13 02:21:14;;;;;;;5.53;2.67;;;17.10;99.90;;;;;;4934272;29;20023;-71
2023/10/13 02:23:45;;;;;;;6.63;2.78;;;17.10;99.90;;;;;;4949961;28;20031;-71
2023/10/13 02:26:15;;;;;;;10.85;3.83;;;17.10;99.90;;;;;;4967206;28;20043;-72
2023/10/13 02:28:41;;;;;;;5.03;2.97;;;17.10;99.90;;;;;;4950336;29;20054;-70
2023/10/13 02:31:07;;;;;;;14.40;4.05;;;17.10;99.90;;;;;;4966942;28;20830;-70
2023/10/13 02:33:34;;;;;;;8.65;4.13;;;17.10;99.90;;;;;;4965732;28;20043;-70
2023/10/13 02:36:07;;;;;;;7.85;3.38;;;17.10;99.90;;;;;;4950875;29;20050;-71
2023/10/13 02:41:11;;;;;;;12.90;4.10;;;17.10;99.90;;;;;;4946903;29;20090;-70
2023/10/13 02:43:37;;;;;;;14.65;4.07;;;17.10;99.90;;;;;;4946503;28;20115;-70
2023/10/13 02:46:04;;;;;;;10.25;3.92;;;17.10;99.90;;;;;;4964800;28;20036;-70
2023/10/13 02:48:39;;;;;;;20.63;4.70;;;17.20;99.90;;;;;;4947882;29;20031;-70
2023/10/13 02:51:15;;;;;;;7.70;3.67;;;17.30;99.90;;;;;;4897725;29;1045202;-70
2023/10/13 02:53:48;;;;;;;10.75;4.05;;;17.30;99.90;;;;;;4929578;29;20062;-71
2023/10/13 02:56:20;;;;;;;9.13;4.05;;;17.30;99.90;;;;;;4949200;29;20031;-71
2023/10/13 02:58:56;;;;;;;10.88;4.55;;;17.20;99.90;;;;;;4943620;29;20032;-71
2023/10/13 03:01:28;;;;;;;8.48;3.92;;;17.20;99.90;;;;;;4947936;29;20040;-71
2023/10/13 03:03:55;;;;;;;7.13;3.97;;;17.10;99.90;;;;;;4947374;28;20055;-71
2023/10/13 03:06:35;;;;;;;8.85;3.83;;;17.10;99.90;;;;;;4949129;29;20089;-71
2023/10/13 03:09:17;;;;;;;8.32;3.95;;;17.00;99.90;;;;;;4947016;29;20027;-71
2023/10/13 03:11:48;;;;;;;6.88;2.97;;;17.00;99.90;;;;;;4934583;29;20028;-71
2023/10/13 03:14:25;;;;;;;5.93;2.78;;;17.00;99.90;;;;;;4947627;28;20119;-71
2023/10/13 03:17:05;;;;;;;8.27;3.20;;;17.00;99.90;;;;;;4926769;29;20312;-71
2023/10/13 03:19:32;;;;;;;9.77;3.93;;;16.90;99.90;;;;;;4946827;29;20508;-71
2023/10/13 03:22:15;;;;;;;7.50;3.67;;;16.90;99.90;;;;;;4949069;29;20283;-70
2023/10/13 03:24:46;;;;;;;10.35;3.35;;;16.90;99.90;;;;;;4947810;28;20027;-71
2023/10/13 03:27:16;;;;;;;;;;;16.90;99.90;;;;;;4934774;29;20361;-71
2023/10/13 03:29:43;;;;;;;6.53;3.67;;;16.90;99.90;;;;;;4934441;29;19953;-71
2023/10/13 03:32:12;;;;;;;15.55;4.07;;;16.90;99.90;;;;;;4948767;29;20030;-70
2023/10/13 03:37:52;;;;;;;10.68;3.45;;;16.80;99.90;;;;;;4948356;29;20119;-71
2023/10/13 03:40:33;;;;;;;6.97;3.40;;;16.90;99.90;;;;;;4939299;29;20095;-71
2023/10/13 03:45:38;;;;;;;7.28;3.22;;;16.90;99.90;;;;;;4948413;29;20036;-70
2023/10/13 03:48:09;;;;;;;8.88;3.60;;;16.80;99.90;;;;;;4929949;29;20097;-71
2023/10/13 03:50:48;;;;;;;4.75;2.75;;;16.80;99.90;;;;;;4952028;28;20047;-71
2023/10/13 03:53:14;;;;;;;8.18;3.20;;;16.90;99.90;;;;;;4937863;29;20122;-71
2023/10/13 03:55:47;;;;;;;7.90;3.35;;;16.90;99.90;;;;;;4938573;29;20047;-70
2023/10/13 03:58:16;;;;;;;9.05;3.85;;;16.90;99.90;;;;;;4938023;29;20028;-70
2023/10/13 04:00:42;;;;;;;15.93;3.17;;;17.00;99.90;;;;;;4938541;29;20019;-71
2023/10/13 04:03:09;;;;;;;11.32;4.30;;;16.90;99.90;;;;;;4952217;29;20028;-72
2023/10/13 04:05:41;;;;;;;7.97;3.28;;;16.90;99.90;;;;;;4938454;29;20356;-70
2023/10/13 04:14:23;;;;;;;8.52;3.78;;;16.80;99.90;;;;;;4933170;29;20034;-71
2023/10/13 04:16:50;;;;;;;11.35;3.55;;;16.80;99.90;;;;;;4949456;28;20043;-71
2023/10/13 04:19:28;;;;;;;10.43;3.05;;;16.80;99.90;;;;;;4935664;29;20072;-71
2023/10/13 04:22:13;;;;;;;14.75;3.47;;;16.80;99.90;;;;;;4937853;29;20036;-71
2023/10/13 04:25:00;;;;;;;8.25;3.88;;;16.80;99.90;;;;;;4967634;28;20389;-69
2023/10/13 04:27:44;;;;;;;9.82;3.40;;;16.70;99.90;;;;;;4937216;28;20031;-70
2023/10/13 04:30:10;;;;;;;6.35;3.38;;;16.70;99.90;;;;;;4952483;29;20036;-71
2023/10/13 04:32:46;;;;;;;6.07;3.08;;;16.70;99.90;;;;;;4937379;29;20039;-71
2023/10/13 04:37:52;;;;;;;9.75;2.78;;;16.70;99.90;;;;;;4936624;29;20115;-71
2023/10/13 04:40:24;;;;;;;8.40;3.28;;;16.70;99.90;;;;;;4950344;29;20024;-71
2023/10/13 04:42:56;;;;;;;7.50;3.22;;;16.70;99.90;;;;;;4943348;29;20543;-72
2023/10/13 04:50:47;;;;;;;4.97;2.55;;;16.70;99.90;;;;;;4949507;29;20035;-71
2023/10/13 05:47:47;;;;;;;5.72;2.55;;;16.80;99.90;;;;;;4941369;29;20028;-71
2023/10/13 06:28:41;;;;;;;8.88;2.63;;;17.00;99.90;;;;;;4948626;29;20035;-71
2023/10/13 06:31:12;;;;;;;2.05;1.30;;;17.00;99.90;;;;;;4931154;29;20503;-68
2023/10/13 06:33:45;;;;;;;;;;;17.00;99.90;;;;;;4949844;28;20063;-68
2023/10/13 06:36:10;;;;;;;3.47;1.70;;;17.00;99.90;;;;;;4938691;29;19922;-68
2023/10/13 06:38:37;;;;;;;7.35;2.88;;;17.00;99.90;;;;;;4938669;28;20126;-69
2023/10/13 06:41:05;;;;;;;12.55;2.92;;;17.10;99.90;;;;;;4943513;28;20547;-68
2023/10/13 06:43:40;;;;;;;9.95;2.72;;;17.10;99.90;;;;;;4958387;28;20028;-68
2023/10/13 06:46:16;;;;;;;4.75;1.73;;;17.10;99.90;;;;;;4946566;29;20484;-69
2023/10/13 06:48:43;;;;;;;5.25;2.75;;;17.10;99.90;;;;;;4945629;29;20042;-67
2023/10/13 06:51:17;;;;;;;18.42;3.13;;;17.20;99.90;;;;;;4947551;28;20389;-68
2023/10/13 06:53:51;;;;;;;3.80;2.15;;;17.20;99.90;;;;;;4953234;28;20110;-68
2023/10/13 06:56:27;;;;;;;7.35;2.50;;;17.30;99.90;;;;;;4946719;28;20027;-68
2023/10/13 06:59:04;;;;;;;10.60;2.83;;;17.30;99.90;;;;;;4940147;29;20069;-68
2023/10/13 07:01:30;;;;;;;8.55;3.15;;;17.30;99.90;;;;;;4938212;28;20028;-68
2023/10/13 07:04:01;;;;;;;3.10;1.70;;;17.40;99.90;;;;;;4953451;28;20035;-69
2023/10/13 07:06:27;;;;;;;9.43;2.20;;;17.40;99.90;;;;;;4944345;28;20031;-69
2023/10/13 07:08:53;;;;;;;6.32;2.80;;;17.50;99.90;;;;;;4952568;29;20399;-69
2023/10/13 07:11:34;;;;;;;7.20;2.72;;;17.50;99.90;;;;;;4946211;28;20036;-69
2023/10/13 07:14:10;;;;;;;13.73;2.60;;;17.60;99.90;;;;;;4928128;29;20114;-70
2023/10/13 07:16:58;;;;;;;5.85;1.85;;;17.60;99.90;;;;;;4947686;29;20050;-68
2023/10/13 07:19:27;;;;;;;3.08;1.52;;;17.70;99.90;;;;;;4941436;29;20063;-69
2023/10/13 07:21:58;;;;;;;7.18;2.10;;;17.80;99.90;;;;;;4945404;28;20703;-69
2023/10/13 07:24:31;;;;;;;4.38;2.05;;;17.90;99.90;;;;;;4936186;28;20042;-71
2023/10/13 07:27:07;;;;;;;7.03;2.22;;;18.00;99.90;;;;;;4947610;29;20472;-70
2023/10/13 07:29:37;;;;;;;6.18;2.08;;;18.00;99.90;;;;;;4948266;29;20047;-71
2023/10/13 07:32:03;;;;;;;5.93;2.20;;;18.10;99.90;;;;;;4932988;29;20063;-71
2023/10/13 07:34:33;;;;;;;3.15;1.80;;;18.20;99.90;;;;;;4930633;29;20523;-71
2023/10/13 07:36:59;;;;;;;6.55;1.92;;;18.30;99.90;;;;;;4945888;28;20043;-71
2023/10/13 07:39:40;;;;;;;4.70;2.45;;;18.40;99.90;;;;;;4932015;29;20123;-70
2023/10/13 07:42:07;;;;;;;3.20;1.48;;;18.40;99.90;;;;;;4944597;28;20039;-70
2023/10/13 07:44:40;;;;;;;5.75;1.55;;;18.50;99.90;;;;;;4940130;29;20039;-71
2023/10/13 07:47:07;;;;;;;5.25;1.92;;;18.50;99.90;;;;;;4936894;29;20027;-70
2023/10/13 07:49:39;;;;;;;4.82;1.98;;;18.50;99.90;;;;;;4939021;28;20492;-70
2023/10/13 07:54:49;;;;;;;7.43;1.90;;;18.70;99.90;;;;;;4952096;28;20027;-70
2023/10/13 07:57:17;;;;;;;4.07;1.40;;;18.80;99.90;;;;;;4943137;28;20039;-70
2023/10/13 07:59:52;;;;;;;5.50;2.70;;;19.00;99.90;;;;;;4949052;28;20062;-70
2023/10/13 08:02:48;;;;;;;9.32;2.85;;;19.10;99.90;;;;;;4960261;28;20024;-70
2023/10/13 08:05:24;;;;;;;7.20;2.00;;;19.10;99.90;;;;;;4935949;29;20047;-70
2023/10/13 08:07:52;;;;;;;5.28;1.73;;;19.40;99.90;;;;;;4937825;29;20036;-70
2023/10/13 08:10:18;;;;;;;4.45;2.03;;;19.40;99.90;;;;;;4944911;28;20031;-70
2023/10/13 08:12:44;;;;;;;3.63;2.10;;;19.50;99.90;;;;;;4931830;29;20102;-69
2023/10/13 08:15:21;;;;;;;4.65;1.92;;;19.80;99.90;;;;;;4946668;29;20023;-70
2023/10/13 08:17:52;;;;;;;4.28;2.05;;;19.80;99.90;;;;;;4940988;28;20062;-70
2023/10/13 08:20:18;;;;;;;;;;;19.90;99.90;;;;;;4931639;29;20019;-70
2023/10/13 08:22:47;;;;;;;2.92;1.70;;;19.90;99.90;;;;;;4940212;29;19914;-70
2023/10/13 08:25:20;;;;;;;3.80;1.83;;;20.00;99.90;;;;;;4943531;28;20468;-70
2023/10/13 08:28:04;;;;;;;6.63;1.90;;;20.10;99.90;;;;;;4932812;29;20043;-70
2023/10/13 08:30:42;;;;;;;3.90;1.90;;;20.20;99.90;;;;;;4940526;29;20039;-70
2023/10/13 08:33:17;;;;;;;4.47;2.25;;;20.30;99.90;;;;;;4961634;28;20057;-70
2023/10/13 08:38:29;;;;;;;4.20;2.08;;;20.40;99.90;;;;;;4937624;29;20047;-70
2023/10/13 08:43:50;;;;;;;8.43;2.67;;;20.60;99.90;;;;;;4947192;28;20035;-70
2023/10/13 08:46:29;;;;;;;5.97;2.08;;;20.80;99.90;;;;;;4940256;28;20093;-70
2023/10/13 08:49:17;;;;;;;4.75;1.80;;;21.00;99.90;;;;;;4955332;28;20033;-70
2023/10/13 08:51:44;;;;;;;7.55;1.80;;;21.10;99.90;;;;;;4947355;28;20518;-70
2023/10/13 08:54:33;;;;;;;5.80;2.00;;;21.20;99.90;;;;;;4952810;28;20030;-70
2023/10/13 09:00:03;;;;;;;6.60;1.75;;;21.50;99.90;;;;;;4932774;28;20111;-70
2023/10/13 09:05:42;;;;;;;4.10;1.60;;;21.80;99.90;;;;;;4944159;29;20070;-71
2023/10/13 09:08:09;;;;;;;2.70;1.35;;;21.90;99.90;;;;;;4941984;29;20031;-70
2023/10/13 09:10:44;;;;;;;3.22;1.63;;;22.00;99.90;;;;;;4948474;29;20028;-70
2023/10/13 09:13:18;;;;;;;4.65;1.88;;;22.10;99.90;;;;;;4950204;28;20027;-70
2023/10/13 09:15:59;;;;;;;3.33;1.70;;;22.20;99.90;;;;;;4934495;28;20029;-70
2023/10/13 09:18:47;;;;;;;8.30;2.35;;;22.30;99.90;;;;;;4958508;28;20039;-71
2023/10/13 09:24:21;;;;;;;5.28;2.33;;;22.70;98.80;;;;;;4939913;28;20090;-70
2023/10/13 09:26:53;;;;;;;7.15;1.88;;;22.80;98.40;;;;;;4938419;29;20395;-70
2023/10/13 09:29:19;;;;;;;5.95;2.15;;;23.00;97.60;;;;;;4934864;29;20079;-70
2023/10/13 09:32:03;;;;;;;9.02;2.42;;;23.00;96.60;;;;;;4930503;29;20114;-70
2023/10/13 09:34:33;;;;;;;6.75;1.77;;;23.20;96.70;;;;;;4953311;28;20031;-70
2023/10/13 09:37:03;;;;;;;2.85;1.33;;;23.40;95.40;;;;;;4945597;28;20511;-70
2023/10/13 09:39:44;;;;;;;4.25;1.90;;;23.30;95.30;;;;;;4969954;28;20095;-70
2023/10/13 09:42:12;;;;;;;5.05;1.83;;;23.40;95.40;;;;;;4945542;29;20432;-69
2023/10/13 09:44:40;;;;;;;10.13;1.40;;;23.50;94.50;;;;;;4945263;29;20078;-70
2023/10/13 09:47:16;;;;;;;6.20;1.52;;;23.50;93.80;;;;;;4938622;29;20028;-71
2023/10/13 09:49:45;;;;;;;6.63;1.73;;;23.60;93.50;;;;;;4951862;29;20063;-71
2023/10/13 09:52:20;;;;;;;3.20;1.30;;;23.70;92.80;;;;;;4945127;29;20042;-70
2023/10/13 09:55:23;;;;;;;4.18;1.15;;;23.90;92.70;;;;;;4942365;28;20032;-70
2023/10/13 09:57:59;;;;;;;3.53;1.38;;;24.00;92.70;;;;;;4936985;29;20043;-70
2023/10/13 10:03:19;;;;;;;11.80;1.75;;;24.40;90.70;;;;;;4936137;28;20058;-70
2023/10/13 10:06:03;;;;;;;3.17;1.50;;;24.60;89.50;;;;;;4951326;28;20028;-70
2023/10/13 10:08:34;;;;;;;10.38;2.13;;;24.70;88.60;;;;;;4966437;28;20114;-69
2023/10/13 10:12:01;;;;;;;2.38;1.27;;;24.90;87.60;;;;;;4930435;29;20041;-70
2023/10/13 10:15:13;;;;;;;2.67;1.48;;;25.00;85.00;;;;;;4932820;28;20059;-70
2023/10/13 10:17:43;;;;;;;4.07;1.40;;;25.00;82.50;;;;;;4935446;28;20036;-69
2023/10/13 10:20:32;;;;;;;2.53;1.17;;;25.10;81.10;;;;;;4934955;29;20118;-69
2023/10/13 10:22:59;;;;;;;6.22;1.85;;;25.10;80.70;;;;;;4933137;29;20027;-69
2023/10/13 10:25:35;;;;;;;4.05;1.48;;;25.30;80.50;;;;;;4944104;29;20138;-70
2023/10/13 10:28:08;;;;;;;3.83;1.95;;;25.60;80.60;;;;;;4955889;28;20034;-69
2023/10/13 10:30:38;;;;;;;5.88;1.73;;;25.70;78.90;;;;;;4942488;29;20496;-70
2023/10/13 10:33:18;;;;;;;5.35;2.55;;;25.90;78.60;;;;;;4948937;28;20094;-70
2023/10/13 10:35:46;;;;;;;3.03;1.00;;;25.70;77.30;;;;;;4949330;29;20652;-69
2023/10/13 10:40:57;;;;;;;3.00;1.65;;;26.10;77.30;;;;;;4950119;28;20397;-70
2023/10/13 10:43:49;;;;;;;2.63;1.33;;;26.20;76.10;;;;;;4950085;28;20035;-70
2023/10/13 10:46:42;;;;;;;4.30;1.70;;;26.80;75.80;;;;;;4934124;28;20098;-70
2023/10/13 10:49:08;;;;;;;6.88;1.90;;;26.60;74.50;;;;;;4941036;29;20335;-70
2023/10/13 10:51:44;;;;;;;7.97;1.88;;;27.00;74.60;;;;;;4943598;29;20115;-69
2023/10/13 10:54:20;;;;;;;3.22;1.63;;;27.20;73.40;;;;;;4952131;29;20039;-69
2023/10/13 10:56:52;;;;;;;3.30;1.30;;;27.60;70.90;;;;;;4944532;29;20146;-69
2023/10/13 10:59:19;;;;;;;5.53;1.60;;;27.30;71.90;;;;;;4926489;28;20050;-69
2023/10/13 11:01:46;;;;;;;2.17;1.10;;;28.10;71.70;;;;;;4936111;29;20027;-69
2023/10/13 11:04:14;;;;;;;3.47;1.90;;;30.30;66.60;;;;;;4957053;28;20082;-70
2023/10/13 11:06:47;;;;;;;5.10;1.70;;;31.00;61.70;;;;;;4942943;28;20038;-70
2023/10/13 11:09:31;;;;;;;5.75;1.58;;;31.00;61.10;;;;;;4947212;29;20110;-70
2023/10/13 11:12:06;;;;;;;3.03;1.13;;;32.10;57.60;;;;;;4944359;28;20031;-70
2023/10/13 11:14:32;;;;;;;6.82;1.40;;;31.80;57.10;;;;;;4951772;28;20031;-70
2023/10/13 11:17:13;;;;;;;3.13;1.40;;;32.20;56.40;;;;;;4948303;29;20039;-70
2023/10/13 11:19:41;;;;;;;3.53;1.30;;;31.00;56.50;;;;;;4940553;29;20036;-70
2023/10/13 11:25:12;;;;;;;2.92;1.08;;;31.00;56.90;;;;;;4945103;29;20024;-70
2023/10/13 11:30:19;;;;;;;2.42;1.30;;;31.60;55.00;;;;;;4943113;29;20026;-70
2023/10/13 11:32:56;;;;;;;4.35;1.27;;;30.90;55.70;;;;;;4943852;29;20031;-69
2023/10/13 11:35:23;;;;;;;9.85;1.67;;;30.00;57.10;;;;;;4953023;28;20039;-69
2023/10/13 11:40:44;;;;;;;4.13;1.88;;;28.00;60.50;;;;;;4921725;29;20044;-69
2023/10/13 11:43:14;;;;;;;8.60;1.65;;;27.90;61.50;;;;;;4949751;28;20456;-69
2023/10/13 11:48:54;;;;;;;3.25;1.50;;;28.90;61.50;;;;;;4941916;28;20061;-69
2023/10/13 11:51:31;;;;;;;5.88;1.70;;;30.30;59.10;;;;;;4934945;29;20044;-69
2023/10/13 11:53:58;;;;;;;6.20;1.70;;;31.40;57.70;;;;;;4931710;29;20661;-69
2023/10/13 11:56:24;;;;;;;2.92;1.67;;;31.10;57.60;;;;;;4940235;29;20147;-69
2023/10/13 11:58:51;;;;;;;4.55;2.20;;;30.10;59.00;;;;;;4951854;28;20323;-70
2023/10/13 12:11:47;;;;;;;5.93;1.52;;;30.60;57.50;;;;;;4946641;28;20133;-70
2023/10/13 12:14:17;;;;;;;2.78;1.15;;;30.50;59.50;;;;;;4954861;28;20027;-71
2023/10/13 12:16:51;;;;;;;6.38;1.45;;;31.00;57.30;;;;;;4936331;29;20120;-70
2023/10/13 12:19:23;;;;;;;5.68;1.75;;;30.50;58.50;;;;;;4966278;28;20023;-70
2023/10/13 12:22:04;;;;;;;6.68;1.48;;;30.20;59.10;;;;;;4946421;29;20078;-70
2023/10/13 12:27:17;;;;;;;9.93;1.98;;;29.70;58.70;;;;;;4941945;29;20027;-70
2023/10/13 12:29:46;;;;;;;6.63;2.67;;;29.40;60.10;;;;;;4946259;28;20407;-70
2023/10/13 12:32:13;;;;;;;3.55;1.70;;;28.70;60.70;;;;;;4936725;29;20046;-69
2023/10/13 12:53:55;;;;;;;2.15;1.50;;;30.80;57.60;;;;;;4934116;29;20091;-73
2023/10/13 12:56:28;;;;;;;2.80;1.40;;;30.50;57.50;;;;;;4951434;28;20051;-73
2023/10/13 12:58:54;;;;;;;2.70;1.40;;;30.40;57.40;;;;;;4954871;28;20035;-73
2023/10/13 13:01:22;;;;;;;6.82;1.40;;;31.10;57.00;;;;;;4938918;29;20043;-73
2023/10/13 13:03:57;;;;;;;3.95;1.83;;;31.20;56.50;;;;;;4953674;29;20062;-73
2023/10/13 13:06:29;;;;;;;3.10;1.65;;;31.50;55.40;;;;;;4946820;28;20396;-73
2023/10/13 13:09:00;;;;;;;3.40;1.77;;;30.90;56.90;;;;;;4954490;28;20031;-74
2023/10/13 13:11:29;;;;;;;5.40;1.38;;;31.60;55.60;;;;;;4961459;28;20428;-73
2023/10/13 13:13:55;;;;;;;7.50;1.80;;;31.80;55.20;;;;;;4953859;28;20023;-73
2023/10/13 13:16:23;;;;;;;4.22;1.75;;;31.80;54.80;;;;;;4947322;28;20423;-73
2023/10/13 13:18:54;;;;;;;5.57;1.70;;;30.10;56.20;;;;;;4954047;29;20032;-73
2023/10/13 13:21:22;;;;;;;2.83;1.33;;;30.50;56.20;;;;;;4945677;28;20071;-73
2023/10/13 13:23:54;;;;;;;5.82;1.88;;;29.70;56.90;;;;;;4968122;28;20023;-73
2023/10/13 13:26:24;;;;;;;5.35;1.50;;;29.90;57.50;;;;;;4938865;28;20043;-74
2023/10/13 13:28:50;;;;;;;3.42;1.02;;;31.10;55.60;;;;;;4936080;29;20023;-73
2023/10/13 13:31:26;;;;;;;2.15;1.30;;;31.20;55.30;;;;;;4949985;29;20103;-74
2023/10/13 13:33:52;;;;;;;3.53;1.52;;;30.70;55.70;;;;;;4961962;28;20505;-73
2023/10/13 13:36:19;;;;;;;4.72;1.40;;;30.90;55.40;;;;;;4947170;28;20126;-74
2023/10/13 13:38:46;;;;;;;5.85;1.98;;;30.70;55.70;;;;;;4952924;29;20073;-74
2023/10/13 13:41:16;;;;;;;3.97;1.85;;;30.00;57.20;;;;;;4946372;28;20062;-74
2023/10/13 13:46:17;;;;;;;5.45;1.90;;;31.00;55.30;;;;;;4958407;28;20059;-72
2023/10/13 13:48:47;;;;;;;5.53;1.63;;;31.00;55.40;;;;;;4968503;28;20090;-72
2023/10/13 13:51:26;;;;;;;7.80;1.60;;;31.60;54.20;;;;;;4947754;28;20572;-72
2023/10/13 13:53:52;;;;;;;6.43;1.70;;;31.10;54.80;;;;;;4967872;28;20039;-74
2023/10/13 13:56:19;;;;;;;2.72;1.40;;;30.80;55.10;;;;;;4920572;29;20393;-74
2023/10/13 13:58:47;;;;;;;5.07;1.30;;;31.40;55.00;;;;;;4959820;28;20449;-73
2023/10/13 14:01:15;;;;;;;3.55;1.58;;;31.60;53.80;;;;;;4923678;29;20051;-73
2023/10/13 14:03:46;;;;;;;3.65;1.50;;;31.20;54.10;;;;;;4942998;29;20111;-74
2023/10/13 14:06:23;;;;;;;2.80;1.48;;;30.70;55.50;;;;;;4946123;29;20027;-72
2023/10/13 14:08:59;;;;;;;3.10;1.38;;;30.00;55.50;;;;;;4968481;28;20026;-73
2023/10/13 14:14:12;;;;;;;4.50;1.45;;;31.20;53.60;;;;;;4942170;28;20023;-73
2023/10/13 14:16:47;;;;;;;2.53;1.50;;;30.70;53.70;;;;;;4935903;29;20047;-73
2023/10/13 14:19:35;;;;;;;3.85;1.52;;;30.10;54.60;;;;;;4953053;28;20035;-73
2023/10/13 14:22:06;;;;;;;4.75;1.98;;;29.80;54.90;;;;;;4931121;29;20027;-73
2023/10/13 14:24:35;;;;;;;9.02;2.60;;;29.80;55.30;;;;;;4952642;28;20172;-73
2023/10/13 14:27:12;;;;;;;4.55;1.70;;;29.60;55.70;;;;;;4945503;28;20098;-73
2023/10/13 14:29:45;;;;;;;6.82;1.58;;;29.50;55.90;;;;;;4948420;28;20471;-73
2023/10/13 14:32:15;;;;;;;5.90;1.60;;;29.60;55.90;;;;;;4940416;29;20118;-73
2023/10/13 14:34:45;;;;;;;5.45;1.60;;;29.70;55.60;;;;;;4953319;28;20459;-73
2023/10/13 14:37:12;;;;;;;4.78;1.42;;;30.50;54.70;;;;;;4938587;28;20043;-73
2023/10/13 14:39:41;;;;;;;6.18;1.23;;;30.20;55.10;;;;;;4934467;29;20028;-73
2023/10/13 14:42:07;;;;;;;7.05;1.50;;;30.60;54.60;;;;;;4948887;28;20036;-73
2023/10/13 14:44:34;;;;;;;6.25;1.83;;;31.00;53.50;;;;;;4949523;28;20035;-73
2023/10/13 14:47:01;;;;;;;11.95;1.85;;;30.90;52.90;;;;;;4943621;28;20448;-73
2023/10/13 14:49:28;;;;;;;6.13;2.30;;;30.80;52.80;;;;;;4952153;28;20705;-72
2023/10/13 14:51:59;;;;;;;3.85;1.85;;;30.70;53.00;;;;;;4945093;28;20043;-73
2023/10/13 14:54:32;;;;;;;3.88;1.63;;;30.10;53.60;;;;;;4929501;29;20040;-73
2023/10/13 14:57:02;;;;;;;4.35;1.35;;;29.40;54.60;;;;;;4938726;29;20050;-72
2023/10/13 14:59:32;;;;;;;9.82;1.33;;;29.10;55.50;;;;;;4928101;29;20710;-73
2023/10/13 15:02:02;;;;;;;3.05;1.50;;;29.00;55.90;;;;;;4930260;29;20035;-73
2023/10/13 15:04:32;;;;;;;8.60;2.13;;;28.80;55.90;;;;;;4943668;29;20165;-73
2023/10/13 15:07:01;;;;;;;2.70;1.25;;;28.50;56.50;;;;;;4939264;29;20031;-73
2023/10/13 15:09:29;;;;;;;3.40;1.33;;;28.60;56.10;;;;;;4949796;29;20441;-73
2023/10/13 15:11:54;;;;;;;4.50;1.73;;;28.70;55.60;;;;;;4939628;29;20045;-73
2023/10/13 15:14:22;;;;;;;3.65;1.50;;;29.00;55.40;;;;;;4948255;29;20110;-72
2023/10/13 15:16:49;;;;;;;5.15;1.73;;;29.30;55.00;;;;;;4942490;29;20027;-73
2023/10/13 15:19:18;;;;;;;4.95;1.48;;;30.10;54.10;;;;;;4949326;28;20035;-72
2023/10/13 15:21:48;;;;;;;7.82;1.67;;;30.40;53.10;;;;;;4918022;29;20114;-73
2023/10/13 15:24:16;;;;;;;4.75;1.48;;;31.20;52.40;;;;;;4972240;28;20019;-73
2023/10/13 15:26:47;;;;;;;5.15;1.50;;;31.40;51.90;;;;;;4932536;29;20027;-74
2023/10/13 15:29:18;;;;;;;3.53;1.48;;;31.50;51.90;;;;;;4938379;28;20031;-74
2023/10/13 15:32:04;;;;;;;6.50;2.00;;;30.20;53.30;;;;;;4932384;29;20032;-74
2023/10/13 15:34:32;;;;;;;14.88;1.40;;;30.40;53.10;;;;;;4945502;28;20032;-74
2023/10/13 15:36:59;;;;;;;3.75;1.50;;;30.60;52.70;;;;;;4941322;28;20034;-74
2023/10/13 15:39:28;;;;;;;9.35;2.40;;;30.40;53.10;;;;;;4949349;29;20126;-74
2023/10/13 15:42:05;;;;;;;13.25;2.10;;;31.20;52.30;;;;;;4927930;29;20050;-74
2023/10/13 15:44:34;;;;;;;3.78;1.10;;;31.40;51.80;;;;;;4954566;28;20408;-73
2023/10/13 15:47:01;;;;;;;4.32;1.55;;;30.90;51.70;;;;;;4947679;29;20027;-74
2023/10/13 15:49:29;;;;;;;4.20;1.60;;;30.60;52.20;;;;;;4947974;29;20118;-72
2023/10/13 15:51:57;;;;;;;13.05;1.73;;;30.60;52.10;;;;;;4931061;29;20035;-73
2023/10/13 15:54:25;;;;;;;3.25;1.52;;;30.50;52.20;;;;;;4978736;28;20079;-74
2023/10/13 15:56:52;;;;;;;5.22;1.45;;;30.20;52.40;;;;;;4950331;28;20042;-74
2023/10/13 15:59:17;;;;;;;5.72;2.08;;;29.60;52.70;;;;;;4943395;28;20474;-74
2023/10/13 16:01:46;;;;;;;7.05;1.38;;;29.00;53.40;;;;;;4934297;28;20123;-74
2023/10/13 16:04:14;;;;;;;5.97;1.25;;;28.60;54.40;;;;;;4927458;29;20123;-74
2023/10/13 16:06:50;;;;;;;5.47;2.13;;;28.10;54.90;;;;;;4940465;29;20042;-74
2023/10/13 16:09:23;;;;;;;2.95;1.35;;;27.80;55.90;;;;;;4924968;29;20581;-73
2023/10/13 16:11:50;;;;;;;3.92;1.50;;;27.50;56.30;;;;;;4935007;29;20035;-73
2023/10/13 16:14:19;;;;;;;2.10;1.38;;;27.30;57.00;;;;;;4945840;28;20039;-73
2023/10/13 16:16:52;;;;;;;4.65;1.80;;;27.00;57.30;;;;;;4943422;28;20131;-73
2023/10/13 16:19:25;;;;;;;7.50;1.83;;;26.90;57.90;;;;;;4944716;28;20032;-73
2023/10/13 16:21:53;;;;;;;6.35;1.90;;;26.70;58.30;;;;;;4942693;29;20029;-73
2023/10/13 16:24:20;;;;;;;4.63;2.42;;;26.50;58.60;;;;;;4951001;28;20110;-74
2023/10/13 16:26:55;;;;;;;11.82;2.03;;;26.20;59.30;;;;;;4926693;29;20050;-73